NKS796 KDTW-KACY
Flight info
| Callsign | NKS796 |
|---|---|
| Flight time | 1h 11m |
| Altitude | 39000 |
| Route | PAVYL3 ESSBE CXR REC HAR MXE VCN ACY |
| Aircraft | A319/M-SDE3FGHIRWY/LB1 |
Departure
| Time | 2026-05-04 16:50 |
|---|---|
| Airport | Detroit Metropolitan Wayne County Airport (KDTW) |
Arrival
| Time | 2026-05-04 18:01 |
|---|---|
| Airport | Atlantic City International Airport (KACY) |
| Time | Latitude | Longitude | Altitude | Speed | Heading |
|---|---|---|---|---|---|
| 2026-05-04 16:26 | 42.22448 | -83.35009 | 647 ft | 0 kts | 118° |
| 2026-05-04 16:39 | 42.22459 | -83.35037 | 647 ft | 4 kts | 118° |
| 2026-05-04 16:39 | 42.22486 | -83.35082 | 647 ft | 4 kts | 199° |
| 2026-05-04 16:40 | 42.22508 | -83.35068 | 649 ft | 0 kts | 208° |
| 2026-05-04 16:42 | 42.22429 | -83.35145 | 647 ft | 12 kts | 232° |
| 2026-05-04 16:43 | 42.22292 | -83.35344 | 649 ft | 16 kts | 215° |
| 2026-05-04 16:43 | 42.22095 | -83.35491 | 647 ft | 19 kts | 208° |
| 2026-05-04 16:43 | 42.21999 | -83.35560 | 648 ft | 16 kts | 208° |
| 2026-05-04 16:44 | 42.21825 | -83.35339 | 647 ft | 14 kts | 88° |
| 2026-05-04 16:45 | 42.21828 | -83.35048 | 647 ft | 17 kts | 88° |
| 2026-05-04 16:46 | 42.21836 | -83.34615 | 648 ft | 14 kts | 90° |
| 2026-05-04 16:46 | 42.21967 | -83.34419 | 647 ft | 17 kts | 28° |
| 2026-05-04 16:47 | 42.22186 | -83.34257 | 647 ft | 19 kts | 28° |
| 2026-05-04 16:47 | 42.22420 | -83.34086 | 649 ft | 18 kts | 28° |
| 2026-05-04 16:48 | 42.22768 | -83.33829 | 647 ft | 19 kts | 28° |
| 2026-05-04 16:48 | 42.22842 | -83.33773 | 647 ft | 8 kts | 29° |
| 2026-05-04 16:49 | 42.22810 | -83.33635 | 645 ft | 8 kts | 169° |
| 2026-05-04 16:49 | 42.22759 | -83.33667 | 646 ft | 24 kts | 208° |
| 2026-05-04 16:50 | 42.21772 | -83.34394 | 649 ft | 134 kts | 208° |
| 2026-05-04 16:50 | 42.20109 | -83.35616 | 1680 ft | 136 kts | 213° |
| 2026-05-04 16:51 | 42.18138 | -83.36343 | 2660 ft | 175 kts | 186° |
| 2026-05-04 16:51 | 42.16846 | -83.36294 | 3005 ft | 200 kts | 185° |
| 2026-05-04 16:51 | 42.13672 | -83.36111 | 4131 ft | 250 kts | 184° |
| 2026-05-04 16:52 | 42.10068 | -83.35879 | 6072 ft | 266 kts | 184° |
| 2026-05-04 16:52 | 42.08193 | -83.35758 | 6731 ft | 272 kts | 183° |
| 2026-05-04 16:53 | 42.04546 | -83.34259 | 7017 ft | 292 kts | 143° |
| 2026-05-04 16:53 | 42.02416 | -83.26579 | 7015 ft | 301 kts | 102° |
| 2026-05-04 16:54 | 42.02027 | -83.23809 | 7014 ft | 302 kts | 102° |
| 2026-05-04 16:55 | 42.02185 | -83.12601 | 8500 ft | 308 kts | 77° |
| 2026-05-04 16:55 | 42.03254 | -83.07038 | 9504 ft | 308 kts | 68° |
| 2026-05-04 16:56 | 42.04659 | -83.01457 | 10885 ft | 329 kts | 68° |
| 2026-05-04 16:56 | 42.06965 | -82.92340 | 12979 ft | 351 kts | 68° |
| 2026-05-04 16:57 | 42.07754 | -82.89203 | 13771 ft | 355 kts | 68° |
| 2026-05-04 16:57 | 42.09353 | -82.82837 | 15197 ft | 363 kts | 68° |
| 2026-05-04 16:58 | 42.11814 | -82.73021 | 17310 ft | 375 kts | 68° |
| 2026-05-04 16:58 | 42.12649 | -82.69676 | 17994 ft | 379 kts | 68° |
| 2026-05-04 16:59 | 42.14183 | -82.62791 | 19209 ft | 390 kts | 77° |
| 2026-05-04 17:00 | 42.14313 | -82.47824 | 21673 ft | 407 kts | 88° |
| 2026-05-04 17:00 | 42.13211 | -82.36306 | 23436 ft | 419 kts | 98° |
| 2026-05-04 17:01 | 42.12233 | -82.28505 | 24424 ft | 426 kts | 98° |
| 2026-05-04 17:01 | 42.11244 | -82.20576 | 25389 ft | 432 kts | 98° |
| 2026-05-04 17:02 | 42.10227 | -82.12526 | 26332 ft | 439 kts | 98° |
| 2026-05-04 17:02 | 42.09188 | -82.04420 | 27234 ft | 446 kts | 98° |
| 2026-05-04 17:03 | 42.08658 | -82.00296 | 27695 ft | 449 kts | 98° |
| 2026-05-04 17:03 | 42.08117 | -81.96087 | 28146 ft | 452 kts | 98° |
| 2026-05-04 17:03 | 42.07035 | -81.87736 | 29041 ft | 459 kts | 100° |
| 2026-05-04 17:04 | 42.04802 | -81.79660 | 29893 ft | 466 kts | 121° |
| 2026-05-04 17:04 | 42.00754 | -81.72862 | 30547 ft | 468 kts | 140° |
| 2026-05-04 17:05 | 41.95809 | -81.67085 | 31186 ft | 474 kts | 142° |
| 2026-05-04 17:05 | 41.90786 | -81.61258 | 31782 ft | 480 kts | 142° |
| 2026-05-04 17:06 | 41.85715 | -81.55399 | 32655 ft | 479 kts | 142° |
| 2026-05-04 17:06 | 41.83187 | -81.52476 | 33115 ft | 479 kts | 142° |
| 2026-05-04 17:07 | 41.78141 | -81.46644 | 33927 ft | 479 kts | 142° |
| 2026-05-04 17:07 | 41.76470 | -81.44714 | 34151 ft | 479 kts | 142° |
| 2026-05-04 17:07 | 41.73089 | -81.40823 | 34611 ft | 479 kts | 142° |
| 2026-05-04 17:07 | 41.70558 | -81.37916 | 34939 ft | 479 kts | 142° |
| 2026-05-04 17:08 | 41.68030 | -81.35013 | 35271 ft | 479 kts | 142° |
| 2026-05-04 17:08 | 41.62979 | -81.29217 | 35929 ft | 478 kts | 142° |
| 2026-05-04 17:08 | 41.60453 | -81.26323 | 36246 ft | 478 kts | 142° |
| 2026-05-04 17:09 | 41.57929 | -81.23439 | 36561 ft | 478 kts | 142° |
| 2026-05-04 17:09 | 41.55406 | -81.20561 | 36865 ft | 478 kts | 143° |
| 2026-05-04 17:09 | 41.52994 | -81.17486 | 37152 ft | 481 kts | 134° |
| 2026-05-04 17:10 | 41.49278 | -81.10049 | 37703 ft | 485 kts | 118° |
| 2026-05-04 17:10 | 41.44641 | -80.98040 | 38526 ft | 485 kts | 119° |
| 2026-05-04 17:11 | 41.43086 | -80.94060 | 38717 ft | 485 kts | 119° |
| 2026-05-04 17:11 | 41.41525 | -80.90059 | 38824 ft | 487 kts | 119° |
| 2026-05-04 17:12 | 41.36813 | -80.77990 | 38860 ft | 495 kts | 119° |
| 2026-05-04 17:13 | 41.28850 | -80.57661 | 38860 ft | 496 kts | 119° |
| 2026-05-04 17:14 | 41.22973 | -80.42745 | 38866 ft | 496 kts | 119° |
| 2026-05-04 17:15 | 41.18191 | -80.30634 | 38875 ft | 496 kts | 119° |
| 2026-05-04 17:16 | 41.11732 | -80.14455 | 38885 ft | 496 kts | 119° |
| 2026-05-04 17:17 | 41.05272 | -79.98278 | 38909 ft | 496 kts | 119° |
| 2026-05-04 17:18 | 40.98773 | -79.82159 | 38912 ft | 496 kts | 120° |
| 2026-05-04 17:19 | 40.92297 | -79.66123 | 38907 ft | 496 kts | 120° |
| 2026-05-04 17:20 | 40.85775 | -79.50067 | 38905 ft | 495 kts | 120° |
| 2026-05-04 17:20 | 40.80864 | -79.38058 | 38910 ft | 495 kts | 120° |
| 2026-05-04 17:21 | 40.74303 | -79.22083 | 38902 ft | 495 kts | 120° |
| 2026-05-04 17:22 | 40.71013 | -79.14117 | 38904 ft | 495 kts | 120° |
| 2026-05-04 17:23 | 40.64432 | -78.98196 | 38902 ft | 495 kts | 120° |
| 2026-05-04 17:24 | 40.59477 | -78.86268 | 38906 ft | 495 kts | 120° |
| 2026-05-04 17:24 | 40.54823 | -78.74151 | 38915 ft | 496 kts | 108° |
| 2026-05-04 17:25 | 40.53956 | -78.69767 | 38925 ft | 496 kts | 99° |
| 2026-05-04 17:26 | 40.51521 | -78.52159 | 38948 ft | 489 kts | 98° |
| 2026-05-04 17:27 | 40.48438 | -78.30294 | 38953 ft | 488 kts | 98° |
| 2026-05-04 17:28 | 40.45931 | -78.12795 | 38949 ft | 487 kts | 98° |
| 2026-05-04 17:29 | 40.42141 | -77.86589 | 38942 ft | 487 kts | 99° |
| 2026-05-04 17:31 | 40.38939 | -77.64800 | 38933 ft | 487 kts | 99° |
| 2026-05-04 17:32 | 40.35693 | -77.43029 | 38949 ft | 487 kts | 99° |
| 2026-05-04 17:33 | 40.33735 | -77.30011 | 38266 ft | 486 kts | 99° |
| 2026-05-04 17:33 | 40.33081 | -77.25665 | 37986 ft | 486 kts | 99° |
| 2026-05-04 17:34 | 40.31095 | -77.12634 | 36415 ft | 490 kts | 99° |
| 2026-05-04 17:34 | 40.30406 | -77.08247 | 35687 ft | 493 kts | 101° |
| 2026-05-04 17:35 | 40.27111 | -76.95352 | 33143 ft | 499 kts | 107° |
| 2026-05-04 17:35 | 40.24821 | -76.86849 | 31735 ft | 486 kts | 108° |
| 2026-05-04 17:35 | 40.23708 | -76.82724 | 31170 ft | 477 kts | 108° |
| 2026-05-04 17:36 | 40.22611 | -76.78657 | 30639 ft | 469 kts | 108° |
| 2026-05-04 17:36 | 40.21535 | -76.74669 | 30107 ft | 462 kts | 108° |
| 2026-05-04 17:36 | 40.20468 | -76.70717 | 29529 ft | 458 kts | 108° |
| 2026-05-04 17:36 | 40.19412 | -76.66809 | 29006 ft | 454 kts | 108° |
| 2026-05-04 17:37 | 40.18359 | -76.62918 | 28479 ft | 450 kts | 108° |
| 2026-05-04 17:37 | 40.17318 | -76.59082 | 27965 ft | 447 kts | 108° |
| 2026-05-04 17:37 | 40.16277 | -76.55261 | 27453 ft | 444 kts | 108° |
| 2026-05-04 17:37 | 40.15240 | -76.51473 | 26961 ft | 440 kts | 108° |
| 2026-05-04 17:38 | 40.14216 | -76.47730 | 26464 ft | 438 kts | 108° |
| 2026-05-04 17:38 | 40.13206 | -76.44037 | 26026 ft | 434 kts | 108° |
| 2026-05-04 17:38 | 40.12193 | -76.40339 | 25501 ft | 433 kts | 109° |
| 2026-05-04 17:38 | 40.11180 | -76.36649 | 25036 ft | 430 kts | 109° |
| 2026-05-04 17:39 | 40.09162 | -76.29311 | 24122 ft | 427 kts | 109° |
| 2026-05-04 17:39 | 40.08159 | -76.25669 | 23682 ft | 425 kts | 109° |
| 2026-05-04 17:39 | 40.07157 | -76.22048 | 23189 ft | 423 kts | 109° |
| 2026-05-04 17:40 | 40.06163 | -76.18458 | 22750 ft | 418 kts | 109° |
| 2026-05-04 17:40 | 40.05179 | -76.14906 | 22316 ft | 413 kts | 109° |
| 2026-05-04 17:40 | 40.04207 | -76.11401 | 21870 ft | 409 kts | 109° |
| 2026-05-04 17:40 | 40.03243 | -76.07923 | 21305 ft | 408 kts | 109° |
| 2026-05-04 17:41 | 40.02278 | -76.04436 | 20759 ft | 407 kts | 109° |
| 2026-05-04 17:41 | 40.01316 | -76.00979 | 20265 ft | 404 kts | 109° |
| 2026-05-04 17:41 | 40.00184 | -75.97645 | 19786 ft | 400 kts | 121° |
| 2026-05-04 17:41 | 39.98780 | -75.94540 | 19300 ft | 397 kts | 121° |
| 2026-05-04 17:42 | 39.97380 | -75.91446 | 18821 ft | 394 kts | 121° |
| 2026-05-04 17:42 | 39.95998 | -75.88384 | 18357 ft | 391 kts | 121° |
| 2026-05-04 17:42 | 39.94622 | -75.85344 | 17842 ft | 388 kts | 121° |
| 2026-05-04 17:42 | 39.93252 | -75.82329 | 17390 ft | 385 kts | 122° |
| 2026-05-04 17:43 | 39.91908 | -75.79379 | 16998 ft | 383 kts | 122° |
| 2026-05-04 17:43 | 39.90532 | -75.76367 | 16599 ft | 381 kts | 122° |
| 2026-05-04 17:43 | 39.89180 | -75.73412 | 16215 ft | 378 kts | 122° |
| 2026-05-04 17:43 | 39.87838 | -75.70474 | 15861 ft | 376 kts | 122° |
| 2026-05-04 17:44 | 39.86510 | -75.67567 | 15481 ft | 374 kts | 122° |
| 2026-05-04 17:44 | 39.85183 | -75.64660 | 15103 ft | 371 kts | 122° |
| 2026-05-04 17:44 | 39.83867 | -75.61783 | 14835 ft | 370 kts | 122° |
| 2026-05-04 17:44 | 39.82570 | -75.58952 | 14603 ft | 369 kts | 122° |
| 2026-05-04 17:45 | 39.81260 | -75.56097 | 14358 ft | 366 kts | 122° |
| 2026-05-04 17:45 | 39.79963 | -75.53270 | 13934 ft | 362 kts | 123° |
| 2026-05-04 17:45 | 39.78675 | -75.50463 | 13398 ft | 361 kts | 123° |
| 2026-05-04 17:45 | 39.77395 | -75.47675 | 12891 ft | 358 kts | 123° |
| 2026-05-04 17:46 | 39.76123 | -75.44904 | 12390 ft | 355 kts | 123° |
| 2026-05-04 17:46 | 39.74856 | -75.42152 | 11898 ft | 353 kts | 123° |
| 2026-05-04 17:46 | 39.73601 | -75.39428 | 11402 ft | 348 kts | 123° |
| 2026-05-04 17:46 | 39.72359 | -75.36740 | 10920 ft | 345 kts | 123° |
| 2026-05-04 17:47 | 39.71126 | -75.34077 | 10433 ft | 344 kts | 123° |
| 2026-05-04 17:47 | 39.69914 | -75.31458 | 10228 ft | 329 kts | 122° |
| 2026-05-04 17:47 | 39.68764 | -75.28963 | 10057 ft | 318 kts | 122° |
| 2026-05-04 17:47 | 39.67637 | -75.26524 | 9847 ft | 312 kts | 123° |
| 2026-05-04 17:48 | 39.66516 | -75.24111 | 9539 ft | 313 kts | 122° |
| 2026-05-04 17:48 | 39.65398 | -75.21705 | 9066 ft | 310 kts | 123° |
| 2026-05-04 17:48 | 39.64289 | -75.19319 | 8580 ft | 307 kts | 123° |
| 2026-05-04 17:48 | 39.63192 | -75.16960 | 8103 ft | 305 kts | 123° |
| 2026-05-04 17:49 | 39.62095 | -75.14601 | 7650 ft | 305 kts | 123° |
| 2026-05-04 17:49 | 39.61009 | -75.12264 | 7271 ft | 300 kts | 123° |
| 2026-05-04 17:49 | 39.59931 | -75.09946 | 6734 ft | 298 kts | 123° |
| 2026-05-04 17:49 | 39.58866 | -75.07654 | 6246 ft | 295 kts | 123° |
| 2026-05-04 17:50 | 39.57819 | -75.05408 | 5736 ft | 290 kts | 123° |
| 2026-05-04 17:50 | 39.56795 | -75.03215 | 5289 ft | 285 kts | 123° |
| 2026-05-04 17:50 | 39.55769 | -75.01020 | 5119 ft | 274 kts | 124° |
| 2026-05-04 17:50 | 39.54836 | -74.98943 | 4991 ft | 267 kts | 117° |
| 2026-05-04 17:51 | 39.54379 | -74.96618 | 4866 ft | 263 kts | 95° |
| 2026-05-04 17:51 | 39.54583 | -74.94324 | 4727 ft | 259 kts | 73° |
| 2026-05-04 17:51 | 39.55263 | -74.92176 | 4586 ft | 255 kts | 66° |
| 2026-05-04 17:51 | 39.55949 | -74.90103 | 4452 ft | 246 kts | 66° |
| 2026-05-04 17:52 | 39.56607 | -74.88101 | 4360 ft | 240 kts | 67° |
| 2026-05-04 17:52 | 39.57263 | -74.86102 | 4281 ft | 241 kts | 68° |
| 2026-05-04 17:52 | 39.57917 | -74.84106 | 4158 ft | 241 kts | 67° |
| 2026-05-04 17:52 | 39.58569 | -74.82112 | 4024 ft | 240 kts | 68° |
| 2026-05-04 17:53 | 39.59224 | -74.80107 | 3907 ft | 241 kts | 67° |
| 2026-05-04 17:53 | 39.59869 | -74.78133 | 3766 ft | 235 kts | 67° |
| 2026-05-04 17:53 | 39.60497 | -74.76213 | 3625 ft | 227 kts | 67° |
| 2026-05-04 17:53 | 39.61099 | -74.74361 | 3504 ft | 221 kts | 68° |
| 2026-05-04 17:54 | 39.61690 | -74.72545 | 3383 ft | 219 kts | 68° |
| 2026-05-04 17:54 | 39.62279 | -74.70732 | 3270 ft | 218 kts | 67° |
| 2026-05-04 17:54 | 39.62867 | -74.68922 | 3147 ft | 218 kts | 68° |
| 2026-05-04 17:54 | 39.63463 | -74.67087 | 3016 ft | 220 kts | 68° |
| 2026-05-04 17:55 | 39.64024 | -74.65261 | 2883 ft | 217 kts | 75° |
| 2026-05-04 17:55 | 39.64231 | -74.63353 | 2779 ft | 213 kts | 94° |
| 2026-05-04 17:55 | 39.64012 | -74.61465 | 2653 ft | 211 kts | 110° |
| 2026-05-04 17:55 | 39.63461 | -74.59708 | 2548 ft | 210 kts | 117° |
| 2026-05-04 17:56 | 39.62887 | -74.57972 | 2423 ft | 208 kts | 116° |
| 2026-05-04 17:56 | 39.62334 | -74.56279 | 2309 ft | 201 kts | 116° |
| 2026-05-04 17:56 | 39.61803 | -74.54653 | 2198 ft | 192 kts | 117° |
| 2026-05-04 17:56 | 39.61083 | -74.53246 | 2059 ft | 182 kts | 140° |
| 2026-05-04 17:57 | 39.60055 | -74.52398 | 1989 ft | 173 kts | 163° |
| 2026-05-04 17:57 | 39.58896 | -74.52122 | 1909 ft | 167 kts | 184° |
| 2026-05-04 17:57 | 39.57766 | -74.52363 | 1843 ft | 165 kts | 198° |
| 2026-05-04 17:57 | 39.56674 | -74.52689 | 1761 ft | 157 kts | 196° |
| 2026-05-04 17:58 | 39.55626 | -74.52997 | 1694 ft | 154 kts | 197° |
| 2026-05-04 17:58 | 39.54630 | -74.53289 | 1612 ft | 135 kts | 197° |
| 2026-05-04 17:58 | 39.53733 | -74.53555 | 1529 ft | 130 kts | 196° |
| 2026-05-04 17:58 | 39.52872 | -74.53811 | 1377 ft | 124 kts | 198° |
| 2026-05-04 17:59 | 39.52029 | -74.54062 | 1276 ft | 125 kts | 199° |
| 2026-05-04 17:59 | 39.51183 | -74.54322 | 1044 ft | 123 kts | 197° |
| 2026-05-04 17:59 | 39.49660 | -74.55294 | 836 ft | 123 kts | 208° |
| 2026-05-04 18:00 | 39.48899 | -74.55820 | 665 ft | 125 kts | 208° |
| 2026-05-04 18:00 | 39.48393 | -74.56178 | 602 ft | 124 kts | 208° |
| 2026-05-04 18:00 | 39.47641 | -74.56709 | 462 ft | 123 kts | 204° |
| 2026-05-04 18:00 | 39.46867 | -74.57211 | 267 ft | 125 kts | 206° |
| 2026-05-04 18:01 | 39.46104 | -74.57747 | 91 ft | 116 kts | 204° |
| 2026-05-04 18:01 | 39.45543 | -74.58123 | 69 ft | 53 kts | 209° |
| 2026-05-04 18:01 | 39.45371 | -74.58243 | 68 ft | 20 kts | 208° |
| 2026-05-04 18:02 | 39.45210 | -74.58157 | 72 ft | 14 kts | 135° |
| 2026-05-04 18:02 | 39.45133 | -74.58057 | 69 ft | 17 kts | 135° |
| 2026-05-04 18:02 | 39.45081 | -74.57965 | 70 ft | 11 kts | 89° |
| 2026-05-04 18:02 | 39.45126 | -74.57871 | 67 ft | 13 kts | 55° |
| 2026-05-04 18:03 | 39.45180 | -74.57770 | 71 ft | 11 kts | 59° |
| 2026-05-04 18:03 | 39.45158 | -74.57688 | 70 ft | 10 kts | 136° |
| 2026-05-04 18:03 | 39.45144 | -74.57595 | 74 ft | 12 kts | 106° |
| 2026-05-04 18:03 | 39.45107 | -74.57525 | 72 ft | 8 kts | 116° |
| 2026-05-04 18:04 | 39.45130 | -74.57472 | 71 ft | 3 kts | 40° |
| 2026-05-04 18:04 | 39.45144 | -74.57438 | 74 ft | 6 kts | 83° |
| 2026-05-04 18:04 | 39.45117 | -74.57400 | 74 ft | 2 kts | 156° |
| 2026-05-04 18:05 | 39.45112 | -74.57397 | 74 ft | 0 kts | 156° |